Time;durP1;ratioP1;P1;durP2;ratioP2;P2;SDS_P1;SDS_P2;PMS_P1;PMS_P2;Temp;Humidity;BMP_temperature;BMP_pressure;BME280_temperature;BME280_humidity;BME280_pressure;Samples;Min_cycle;Max_cycle;Signal;HPM_P1;HPM_P2
2023/03/01 00:01:23;;;;;;;;;;;;;;;5.90;72.94;102310.56;4987655;28;2806;-85
2023/03/01 00:03:50;;;;;;;;;;;;;;;5.88;73.08;102309.84;4985499;28;2849;-84
2023/03/01 00:06:16;;;;;;;;;;;;;;;5.88;73.10;102315.22;4981932;28;2891;-85
2023/03/01 00:08:43;;;;;;;;;;;;;;;5.85;72.94;102312.81;4990826;28;2734;-84
2023/03/01 00:11:09;;;;;;;;;;;;;;;5.85;72.90;102310.16;4982114;28;3018;-85
2023/03/01 00:13:36;;;;;;;;;;;;;;;5.84;73.09;102313.81;4988464;28;2847;-84
2023/03/01 00:16:03;;;;;;;;;;;;;;;5.83;72.97;102309.47;4984932;28;3173;-83
2023/03/01 00:18:30;;;;;;;;;;;;;;;5.82;72.84;102311.28;4983111;28;3204;-84
2023/03/01 00:20:56;;;;;;;;;;;;;;;5.81;72.88;102311.44;4985112;28;3279;-84
2023/03/01 00:23:23;;;;;;;;;;;;;;;5.79;72.88;102316.09;4989861;28;2540;-84
2023/03/01 00:25:50;;;;;;;;;;;;;;;5.79;73.06;102319.59;4984806;28;3211;-85
2023/03/01 00:28:16;;;;;;;;;;;;;;;5.79;72.88;102318.75;4987656;28;1935;-84
2023/03/01 00:30:43;;;;;;;;;;;;;;;5.80;72.82;102326.66;4981227;28;2257;-84
2023/03/01 00:33:09;;;;;;;;;;;;;;;5.76;72.80;102317.22;4997849;28;2604;-85
2023/03/01 00:35:36;;;;;;;;;;;;;;;5.75;73.05;102323.56;4988576;28;2528;-84
2023/03/01 00:38:03;;;;;;;;;;;;;;;5.72;72.94;102323.84;4988390;28;2592;-84
2023/03/01 00:40:30;;;;;;;;;;;;;;;5.73;72.94;102322.84;4989030;28;2602;-85
2023/03/01 00:42:56;;;;;;;;;;;;;;;5.71;72.93;102324.84;4988559;28;2536;-85
2023/03/01 00:45:23;;;;;;;;;;;;;;;5.70;72.68;102320.47;4983282;28;2389;-85
2023/03/01 00:47:50;;;;;;;;;;;;;;;5.68;72.98;102320.63;4985047;28;3483;-85
2023/03/01 00:50:16;;;;;;;;;;;;;;;5.67;72.89;102321.59;4988480;28;2517;-84
2023/03/01 00:52:43;;;;;;;;;;;;;;;5.67;72.99;102316.25;4984616;28;3483;-84
2023/03/01 00:55:09;;;;;;;;;;;;;;;5.66;72.95;102322.59;4992953;28;3387;-84
2023/03/01 00:57:36;;;;;;;;;;;;;;;5.66;72.93;102321.75;4986929;28;2696;-84
2023/03/01 01:00:02;;;;;;;;;;;;;;;5.66;72.66;102324.44;4984050;28;3760;-84
2023/03/01 01:02:29;;;;;;;;;;;;;;;5.61;73.00;102314.16;4985114;28;2427;-85
2023/03/01 01:04:56;;;;;;;;;;;;;;;5.62;72.83;102323.88;4984781;28;3734;-85
2023/03/01 01:07:22;;;;;;;;;;;;;;;5.61;72.94;102324.00;4983961;28;3503;-84
2023/03/01 01:09:49;;;;;;;;;;;;;;;5.59;72.71;102320.63;4982519;28;3857;-83
2023/03/01 01:12:15;;;;;;;;;;;;;;;5.58;72.82;102314.44;4984241;28;3176;-85
2023/03/01 01:14:42;;;;;;;;;;;;;;;5.56;72.96;102311.09;4983114;28;3491;-84
2023/03/01 01:17:08;;;;;;;;;;;;;;;5.56;72.82;102308.44;4987104;28;3864;-83
2023/03/01 01:19:35;;;;;;;;;;;;;;;5.55;72.90;102305.88;4984701;28;2232;-84
2023/03/01 01:22:01;;;;;;;;;;;;;;;5.53;72.89;102313.19;4984921;28;3480;-85
2023/03/01 01:24:28;;;;;;;;;;;;;;;5.52;72.68;102311.50;4984011;28;4101;-84
2023/03/01 01:26:54;;;;;;;;;;;;;;;5.51;72.72;102308.00;4990591;28;3515;-83
2023/03/01 01:29:21;;;;;;;;;;;;;;;5.49;73.02;102307.28;4984530;28;3638;-84
2023/03/01 01:31:48;;;;;;;;;;;;;;;5.47;72.75;102317.28;4984224;28;3172;-84
2023/03/01 01:34:14;;;;;;;;;;;;;;;5.46;72.93;102310.25;4994062;28;2207;-83
2023/03/01 01:36:41;;;;;;;;;;;;;;;5.45;72.86;102312.09;4983426;28;3432;-85
2023/03/01 01:39:12;;;;;;;;;;;;;;;5.44;73.01;102312.22;4981919;28;3701;-85
2023/03/01 01:41:39;;;;;;;;;;;;;;;5.43;72.94;102307.88;4990490;28;3896;-84
2023/03/01 01:44:05;;;;;;;;;;;;;;;5.46;72.76;102311.09;4982543;28;3491;-85
2023/03/01 01:46:32;;;;;;;;;;;;;;;5.42;72.89;102309.72;4984391;28;3534;-84
2023/03/01 01:48:59;;;;;;;;;;;;;;;5.41;72.83;102309.84;4986052;28;3463;-84
2023/03/01 01:51:25;;;;;;;;;;;;;;;5.39;72.79;102307.31;4980457;28;2145;-83
2023/03/01 01:53:52;;;;;;;;;;;;;;;5.39;72.54;102306.47;4985941;28;2731;-83
2023/03/01 01:56:19;;;;;;;;;;;;;;;5.39;72.72;102311.81;4986351;28;3378;-84
2023/03/01 01:58:47;;;;;;;;;;;;;;;5.37;72.79;102311.13;4987625;28;2678;-83
2023/03/01 02:01:13;;;;;;;;;;;;;;;5.38;72.76;102316.34;4984624;28;2874;-83
2023/03/01 02:03:41;;;;;;;;;;;;;;;5.34;72.85;102314.91;4978393;28;2708;-83
2023/03/01 02:06:08;;;;;;;;;;;;;;;5.35;72.88;102318.41;4976481;28;2087;-85
2023/03/01 02:08:35;;;;;;;;;;;;;;;5.31;73.03;102315.19;4980467;28;2428;-83
2023/03/01 02:11:03;;;;;;;;;;;;;;;5.35;72.81;102311.25;4973452;28;2154;-84
2023/03/01 02:13:30;;;;;;;;;;;;;;;5.31;72.69;102304.50;4975831;28;2431;-85
2023/03/01 02:15:57;;;;;;;;;;;;;;;5.30;72.84;102310.00;4972842;28;2980;-83
2023/03/01 02:18:23;;;;;;;;;;;;;;;5.30;72.65;102310.84;4973348;28;2372;-83
2023/03/01 02:20:50;;;;;;;;;;;;;;;5.27;72.87;102302.28;4978440;28;2399;-85
2023/03/01 02:23:17;;;;;;;;;;;;;;;5.26;72.96;102297.91;4976133;28;2257;-85
2023/03/01 02:25:44;;;;;;;;;;;;;;;5.27;72.75;102304.97;4974491;28;2502;-83
2023/03/01 02:28:11;;;;;;;;;;;;;;;5.26;72.73;102305.91;4974728;28;2277;-84
2023/03/01 02:31:41;;;;;;;;;;;;;;;5.25;72.69;102310.44;4989065;28;2319;-84
2023/03/01 02:33:23;;;;;;;;;;;;;;;5.21;72.70;102301.03;4975569;28;2422;-85
2023/03/01 02:35:51;;;;;;;;;;;;;;;5.21;72.61;102301.03;4978188;28;2098;-83
2023/03/01 02:38:17;;;;;;;;;;;;;;;5.19;72.78;102293.13;4975616;28;2458;-83
2023/03/01 02:40:44;;;;;;;;;;;;;;;5.21;72.68;102295.69;4977629;28;2300;-85
2023/03/01 02:43:11;;;;;;;;;;;;;;;5.18;72.43;102293.28;4977777;28;2473;-82
2023/03/01 02:45:37;;;;;;;;;;;;;;;5.16;72.75;102298.75;4991481;28;2148;-85
2023/03/01 02:48:04;;;;;;;;;;;;;;;5.16;72.70;102287.25;4976044;28;2450;-85
2023/03/01 02:50:30;;;;;;;;;;;;;;;5.14;72.91;102292.72;4975551;28;2398;-85
2023/03/01 02:52:58;;;;;;;;;;;;;;;5.13;72.60;102292.88;4979332;28;2564;-84
2023/03/01 02:55:24;;;;;;;;;;;;;;;5.13;72.71;102293.69;4975806;28;2511;-84
2023/03/01 02:57:51;;;;;;;;;;;;;;;5.13;72.66;102295.53;4979970;28;1972;-85
2023/03/01 03:00:19;;;;;;;;;;;;;;;5.10;72.81;102296.66;4974624;28;2499;-84
2023/03/01 03:02:46;;;;;;;;;;;;;;;5.10;72.78;102298.50;4976678;28;2470;-84
2023/03/01 03:05:13;;;;;;;;;;;;;;;5.07;72.71;102296.94;4982600;28;3432;-85
2023/03/01 03:07:39;;;;;;;;;;;;;;;5.10;72.83;102296.66;4985563;28;3242;-86
2023/03/01 03:10:06;;;;;;;;;;;;;;;5.07;72.57;102304.13;4978620;28;3199;-84
2023/03/01 03:12:32;;;;;;;;;;;;;;;5.05;72.69;102298.91;4975233;28;2561;-84
2023/03/01 03:14:59;;;;;;;;;;;;;;;5.04;72.69;102299.91;4971489;28;2754;-85
2023/03/01 03:17:25;;;;;;;;;;;;;;;5.03;72.63;102300.88;4977294;28;2395;-85
2023/03/01 03:19:52;;;;;;;;;;;;;;;5.01;72.75;102300.19;4979855;28;2296;-84
2023/03/01 03:22:18;;;;;;;;;;;;;;;5.00;72.76;102299.34;4980690;28;2265;-84
2023/03/01 03:24:45;;;;;;;;;;;;;;;4.99;72.64;102296.78;4980502;28;2469;-85
2023/03/01 03:27:11;;;;;;;;;;;;;;;4.97;72.67;102296.94;4976677;28;2512;-84
2023/03/01 03:29:38;;;;;;;;;;;;;;;4.98;72.77;102292.44;4979705;28;2487;-85
2023/03/01 03:32:04;;;;;;;;;;;;;;;4.95;72.76;102292.72;4978636;28;2390;-84
2023/03/01 03:34:31;;;;;;;;;;;;;;;4.98;72.49;102295.13;4977700;28;2505;-84
2023/03/01 03:36:59;;;;;;;;;;;;;;;4.95;72.62;102282.88;4971621;28;2289;-85
2023/03/01 03:39:25;;;;;;;;;;;;;;;4.93;72.50;102289.34;4976502;28;2687;-85
2023/03/01 03:41:52;;;;;;;;;;;;;;;4.94;72.65;102281.22;4976344;28;2392;-84
2023/03/01 03:44:18;;;;;;;;;;;;;;;4.90;72.76;102285.13;4976184;28;2388;-84
2023/03/01 03:46:45;;;;;;;;;;;;;;;4.90;72.46;102278.94;4975849;28;2399;-86
2023/03/01 03:49:11;;;;;;;;;;;;;;;4.89;72.63;102270.09;4994525;28;2927;-86
2023/03/01 03:51:38;;;;;;;;;;;;;;;4.87;72.77;102266.72;4976043;28;2326;-85
2023/03/01 03:54:04;;;;;;;;;;;;;;;4.90;72.43;102270.94;4976501;28;2438;-85
2023/03/01 03:56:31;;;;;;;;;;;;;;;4.89;72.51;102269.25;4980340;28;2405;-83
2023/03/01 03:58:58;;;;;;;;;;;;;;;4.86;72.66;102265.03;4979238;28;2428;-84
2023/03/01 04:01:25;;;;;;;;;;;;;;;4.85;72.55;102258.00;4976950;28;2367;-83
2023/03/01 04:03:54;;;;;;;;;;;;;;;4.83;72.67;102264.50;4971117;28;2513;-84
2023/03/01 04:06:21;;;;;;;;;;;;;;;4.83;72.52;102261.81;4972815;28;2715;-84
2023/03/01 04:08:50;;;;;;;;;;;;;;;4.81;72.61;102261.94;4970002;28;2551;-85
2023/03/01 04:11:29;;;;;;;;;;;;;;;4.82;72.60;102257.44;4973553;28;2493;-84
2023/03/01 04:14:16;;;;;;;;;;;;;;;4.85;72.43;102254.50;4992372;28;3490;-85
2023/03/01 04:17:05;;;;;;;;;;;;;;;4.79;72.60;102266.56;4986435;28;2166;-84
2023/03/01 04:19:51;;;;;;;;;;;;;;;4.79;72.60;102261.22;4979370;28;2039;-85
2023/03/01 04:22:38;;;;;;;;;;;;;;;4.75;72.77;102266.00;4975378;28;2358;-84
2023/03/01 04:25:25;;;;;;;;;;;;;;;4.74;72.60;102261.66;4978861;28;2422;-85
2023/03/01 04:28:12;;;;;;;;;;;;;;;4.76;72.54;102264.19;4976271;28;2640;-85
2023/03/01 04:31:00;;;;;;;;;;;;;;;4.74;72.53;102263.50;4978364;28;2245;-84
2023/03/01 04:33:52;;;;;;;;;;;;;;;4.72;72.44;102252.09;4977955;28;2362;-84
2023/03/01 04:36:43;;;;;;;;;;;;;;;4.71;72.58;102258.44;4976629;28;2462;-84
2023/03/01 04:39:45;;;;;;;;;;;;;;;4.68;72.53;102251.56;4979547;28;2146;-86
2023/03/01 04:42:37;;;;;;;;;;;;;;;4.67;72.58;102254.34;4975318;28;2466;-85
2023/03/01 04:45:29;;;;;;;;;;;;;;;4.68;72.62;102251.56;4975899;28;2623;-84
2023/03/01 04:48:22;;;;;;;;;;;;;;;4.65;72.43;102248.31;4979345;28;2487;-86
2023/03/01 04:51:13;;;;;;;;;;;;;;;4.67;72.50;102249.84;4977473;28;2595;-86
2023/03/01 04:54:08;;;;;;;;;;;;;;;4.68;72.40;102253.38;4980104;28;3489;-84
2023/03/01 04:57:00;;;;;;;;;;;;;;;4.66;72.44;102247.34;4982444;28;2316;-85
2023/03/01 04:59:51;;;;;;;;;;;;;;;4.65;72.44;102251.84;4975622;28;2367;-84
2023/03/01 05:02:43;;;;;;;;;;;;;;;4.64;72.45;102249.28;4975687;28;2378;-85
2023/03/01 05:05:35;;;;;;;;;;;;;;;4.63;72.41;102253.78;4976340;28;2414;-84
2023/03/01 05:08:28;;;;;;;;;;;;;;;4.63;72.33;102250.28;4981828;28;2509;-85
2023/03/01 05:11:20;;;;;;;;;;;;;;;4.65;72.27;102246.50;4980132;28;2305;-84
2023/03/01 05:14:12;;;;;;;;;;;;;;;4.63;72.28;102244.94;4975092;28;2379;-84
2023/03/01 05:17:03;;;;;;;;;;;;;;;4.62;72.33;102252.13;4974445;28;2335;-83
2023/03/01 05:19:55;;;;;;;;;;;;;;;4.62;72.10;102246.78;4978172;28;2481;-86
2023/03/01 05:22:46;;;;;;;;;;;;;;;4.66;72.19;102252.66;4978468;28;2719;-84
2023/03/01 05:25:39;;;;;;;;;;;;;;;4.65;71.95;102251.00;4976570;28;2598;-85
2023/03/01 05:28:31;;;;;;;;;;;;;;;4.60;72.05;102242.56;4973797;28;2533;-84
2023/03/01 05:31:23;;;;;;;;;;;;;;;4.62;72.12;102249.44;4975121;28;2304;-84
2023/03/01 05:34:16;;;;;;;;;;;;;;;4.61;72.18;102257.56;4977069;28;2371;-85
2023/03/01 05:37:08;;;;;;;;;;;;;;;4.66;71.85;102252.66;4976010;28;2098;-84
2023/03/01 05:39:59;;;;;;;;;;;;;;;4.65;71.82;102253.66;4977267;28;2574;-84
2023/03/01 05:42:51;;;;;;;;;;;;;;;4.64;71.86;102265.31;4976250;28;2556;-84
2023/03/01 05:45:43;;;;;;;;;;;;;;;4.61;72.06;102262.91;4974394;28;2511;-85
2023/03/01 05:48:35;;;;;;;;;;;;;;;4.64;71.87;102265.31;4974609;28;2437;-85
2023/03/01 05:51:27;;;;;;;;;;;;;;;4.59;71.93;102263.06;4973785;28;2516;-85
2023/03/01 05:54:20;;;;;;;;;;;;;;;4.62;71.68;102259.25;4975536;28;2260;-85
2023/03/01 05:57:11;;;;;;;;;;;;;;;4.60;71.76;102250.56;4970252;28;2379;-84
2023/03/01 05:59:38;;;;;;;;;;;;;;;4.59;71.76;102257.72;4974320;28;2278;-84
2023/03/01 06:02:30;;;;;;;;;;;;;;;4.60;71.63;102259.41;4974995;28;2493;-84
2023/03/01 06:05:21;;;;;;;;;;;;;;;4.59;71.73;102252.41;4975553;28;2498;-84
2023/03/01 06:08:13;;;;;;;;;;;;;;;4.64;71.59;102250.13;4984648;28;2323;-84
2023/03/01 06:11:05;;;;;;;;;;;;;;;4.61;71.67;102244.22;4985807;28;2528;-84
2023/03/01 06:13:56;;;;;;;;;;;;;;;4.63;71.52;102252.94;4989367;28;3426;-85
2023/03/01 06:16:48;;;;;;;;;;;;;;;4.61;71.48;102261.09;4987969;28;2592;-85
2023/03/01 06:19:40;;;;;;;;;;;;;;;4.61;71.60;102258.41;4978476;28;2514;-86
2023/03/01 06:22:32;;;;;;;;;;;;;;;4.59;71.53;102259.53;4972297;28;2514;-85
2023/03/01 06:25:25;;;;;;;;;;;;;;;4.62;71.47;102262.78;4985454;28;3531;-83
2023/03/01 06:28:16;;;;;;;;;;;;;;;4.61;71.53;102268.25;4987174;28;2632;-85
2023/03/01 06:31:09;;;;;;;;;;;;;;;4.59;71.59;102264.88;4985689;28;3186;-84
2023/03/01 06:34:00;;;;;;;;;;;;;;;4.59;71.62;102264.88;4980079;28;3571;-85
2023/03/01 06:36:47;;;;;;;;;;;;;;;4.58;71.52;102272.03;4979496;28;3499;-84
2023/03/01 06:39:34;;;;;;;;;;;;;;;4.62;71.35;102261.91;4990278;28;2462;-84
2023/03/01 06:42:22;;;;;;;;;;;;;;;4.61;71.39;102262.91;4984000;28;2690;-84
2023/03/01 06:45:13;;;;;;;;;;;;;;;4.61;71.38;102262.91;4984892;28;3806;-84
2023/03/01 06:48:00;;;;;;;;;;;;;;;4.64;71.32;102270.63;4994010;28;3435;-84
2023/03/01 06:50:27;;;;;;;;;;;;;;;4.60;71.35;102271.91;4985357;28;3487;-83
2023/03/01 06:52:54;;;;;;;;;;;;;;;4.62;71.33;102270.78;4979378;28;2734;-83
2023/03/01 06:55:20;;;;;;;;;;;;;;;4.58;71.47;102258.69;4986223;28;3482;-83
2023/03/01 06:57:47;;;;;;;;;;;;;;;4.63;71.25;102271.63;4982145;28;3498;-83
2023/03/01 07:00:14;;;;;;;;;;;;;;;4.61;71.27;102276.25;4996611;28;2708;-84
2023/03/01 07:02:40;;;;;;;;;;;;;;;4.61;71.51;102270.91;4998716;28;3334;-83
2023/03/01 07:05:07;;;;;;;;;;;;;;;4.61;71.54;102270.91;4989148;28;2646;-84
2023/03/01 07:07:33;;;;;;;;;;;;;;;4.61;71.27;102271.75;4985358;28;3695;-84
2023/03/01 07:10:01;;;;;;;;;;;;;;;4.62;71.37;102272.59;4970530;28;2186;-83
2023/03/01 07:12:43;;;;;;;;;;;;;;;4.63;71.11;102272.47;4973476;28;2510;-85
2023/03/01 07:15:10;;;;;;;;;;;;;;;4.62;71.25;102270.78;4973048;28;3455;-84
2023/03/01 07:17:36;;;;;;;;;;;;;;;4.60;71.35;102277.25;4975577;28;3112;-84
2023/03/01 07:20:03;;;;;;;;;;;;;;;4.62;71.13;102275.25;4970634;28;2516;-84
2023/03/01 07:22:30;;;;;;;;;;;;;;;4.62;71.13;102268.13;4986423;28;2501;-85
2023/03/01 07:24:56;;;;;;;;;;;;;;;4.63;71.16;102277.81;4973045;28;2395;-83
2023/03/01 07:27:23;;;;;;;;;;;;;;;4.63;71.13;102279.63;4979599;28;2765;-83
2023/03/01 07:29:49;;;;;;;;;;;;;;;4.64;71.09;102279.47;4989283;28;3355;-83
2023/03/01 07:32:16;;;;;;;;;;;;;;;4.64;70.91;102292.00;4993744;28;3803;-84
2023/03/01 07:34:42;;;;;;;;;;;;;;;4.69;70.64;102287.94;4976708;28;3681;-83
2023/03/01 07:37:09;;;;;;;;;;;;;;;4.68;70.77;102288.09;4978351;28;2522;-84
2023/03/01 07:39:35;;;;;;;;;;;;;;;4.65;71.03;102293.69;4972364;28;2608;-82
2023/03/01 07:42:02;;;;;;;;;;;;;;;4.65;70.89;102286.53;4976074;28;2644;-83
2023/03/01 07:44:29;;;;;;;;;;;;;;;4.73;70.67;102292.00;4973922;28;2851;-83
2023/03/01 07:46:57;;;;;;;;;;;;;;;4.71;70.77;102283.31;4974272;28;2335;-83
2023/03/01 07:49:26;;;;;;;;;;;;;;;4.69;70.89;102284.41;4990831;28;2516;-82
2023/03/01 07:51:52;;;;;;;;;;;;;;;4.72;70.53;102278.81;4986314;28;3569;-83
2023/03/01 07:54:19;;;;;;;;;;;;;;;4.71;70.74;102280.63;4980754;28;3561;-82
2023/03/01 07:56:47;;;;;;;;;;;;;;;4.72;70.60;102276.13;4979742;28;3800;-82
2023/03/01 07:59:14;;;;;;;;;;;;;;;4.17;70.69;102196.56;4976719;28;3701;-82
2023/03/01 08:01:44;;;;;;;;;;;;;;;4.74;70.53;102280.34;4976501;28;2641;-81
2023/03/01 08:04:10;;;;;;;;;;;;;;;4.71;70.62;102277.97;4973390;28;2569;-81
2023/03/01 08:06:37;;;;;;;;;;;;;;;4.71;70.69;102277.13;4976153;28;2623;-81
2023/03/01 08:09:03;;;;;;;;;;;;;;;4.71;70.72;102279.78;4982832;28;2441;-83
2023/03/01 08:11:30;;;;;;;;;;;;;;;4.74;70.66;102284.84;4984095;28;2911;-81
2023/03/01 08:13:57;;;;;;;;;;;;;;;4.72;70.66;102287.66;4981274;28;3411;-81
2023/03/01 08:16:23;;;;;;;;;;;;;;;4.78;70.46;102288.91;4982832;28;3412;-81
2023/03/01 08:18:50;;;;;;;;;;;;;;;4.74;70.74;102285.69;4984486;28;3681;-81
2023/03/01 08:21:16;;;;;;;;;;;;;;;4.75;70.57;102274.03;4983604;28;3693;-81
2023/03/01 08:23:43;;;;;;;;;;;;;;;4.74;70.63;102269.69;4982638;28;3824;-81
2023/03/01 08:26:09;;;;;;;;;;;;;;;4.78;70.50;102272.91;4983401;28;3562;-80
2023/03/01 08:28:36;;;;;;;;;;;;;;;4.81;70.54;102269.94;4989764;28;3860;-82
2023/03/01 08:31:02;;;;;;;;;;;;;;;4.83;70.38;102254.66;4980916;28;3504;-82
2023/03/01 08:33:29;;;;;;;;;;;;;;;4.80;70.52;102264.78;4981899;28;3647;-82
2023/03/01 08:35:56;;;;;;;;;;;;;;;4.80;70.56;102262.09;4981123;28;3806;-83
2023/03/01 08:38:22;;;;;;;;;;;;;;;4.80;70.39;102270.09;4982176;28;3488;-82
2023/03/01 08:40:49;;;;;;;;;;;;;;;4.82;70.52;102273.47;4983084;28;3555;-82
2023/03/01 08:43:15;;;;;;;;;;;;;;;4.80;70.56;102273.63;4983432;28;4142;-82
2023/03/01 08:45:42;;;;;;;;;;;;;;;4.00;63.25;102270.09;4982226;28;4031;-81
2023/03/01 08:48:08;;;;;;;;;;;;;;;4.74;66.79;102280.34;4981640;28;3452;-81
2023/03/01 08:50:35;;;;;;;;;;;;;;;4.78;66.54;102273.75;4981463;28;3528;-82
2023/03/01 08:53:01;;;;;;;;;;;;;;;4.80;67.04;102275.44;4982310;28;3476;-82
2023/03/01 08:55:28;;;;;;;;;;;;;;;4.84;67.44;102275.00;4983519;28;3466;-81
2023/03/01 08:57:54;;;;;;;;;;;;;;;4.86;67.79;102282.91;4980688;28;3496;-82
2023/03/01 09:00:21;;;;;;;;;;;;;;;4.84;67.95;102276.84;4978432;28;4157;-82
2023/03/01 09:02:47;;;;;;;;;;;;;;;4.83;68.17;102276.00;4977237;28;4655;-83
2023/03/01 09:05:14;;;;;;;;;;;;;;;4.85;68.50;102275.84;4982150;28;3582;-83
2023/03/01 09:07:41;;;;;;;;;;;;;;;4.87;68.53;102273.88;4999218;28;3567;-83
2023/03/01 09:10:07;;;;;;;;;;;;;;;4.91;68.46;102270.81;4982805;28;2307;-83
2023/03/01 09:12:34;;;;;;;;;;;;;;;4.87;68.97;102274.72;4981431;28;1618;-83
2023/03/01 09:15:00;;;;;;;;;;;;;;;4.90;68.88;102269.09;4982637;28;4377;-83
2023/03/01 09:17:27;;;;;;;;;;;;;;;4.90;69.09;102269.09;4977841;28;4426;-83
2023/03/01 09:19:53;;;;;;;;;;;;;;;4.94;68.88;102275.00;4978698;28;5336;-83
2023/03/01 09:22:20;;;;;;;;;;;;;;;5.01;68.71;102279.66;4983096;28;1609;-83
2023/03/01 09:24:46;;;;;;;;;;;;;;;4.95;69.19;102272.22;4997016;28;2208;-83
2023/03/01 09:27:14;;;;;;;;;;;;;;;4.97;69.18;102270.25;4983904;28;4324;-83
2023/03/01 09:29:41;;;;;;;;;;;;;;;5.03;69.17;102273.31;4983280;28;4095;-83
2023/03/01 09:32:07;;;;;;;;;;;;;;;5.03;69.42;102270.66;4972243;28;5230;-83
2023/03/01 09:35:00;;;;;;;;;;;;;;;5.01;69.38;102268.97;4972152;28;3600;-83
2023/03/01 09:37:21;;;;;;;;;;;;;;;5.04;69.41;102283.03;4984907;28;2903;-82
2023/03/01 09:39:47;;;;;;;;;;;;;;;5.05;69.52;102277.53;4970589;28;2832;-82
2023/03/01 09:42:15;;;;;;;;;;;;;;;5.03;69.23;102273.31;4972100;28;2798;-82
2023/03/01 09:44:52;;;;;;;;;;;;;;;;;;;;;
2023/03/01 09:47:19;;;;;;;;;;;;;;;5.08;69.55;102268.41;4979874;28;2770;-82
2023/03/01 09:49:48;;;;;;;;;;;;;;;5.13;69.31;102275.00;4974204;28;2964;-83
2023/03/01 09:52:15;;;;;;;;;;;;;;;5.14;69.60;102276.69;4981957;28;2817;-82
2023/03/01 09:54:41;;;;;;;;;;;;;;;5.11;69.71;102276.13;4984692;28;1055;-83
2023/03/01 09:57:08;;;;;;;;;;;;;;;5.13;69.62;102272.34;4979413;28;2092;-82
2023/03/01 09:59:34;;;;;;;;;;;;;;;5.17;69.61;102270.22;4967421;28;3518;-83
2023/03/01 10:02:01;;;;;;;;;;;;;;;5.13;69.86;102261.66;4963801;28;4834;-83
2023/03/01 10:04:27;;;;;;;;;;;;;;;5.16;69.75;102263.19;4967478;28;2832;-81
2023/03/01 10:06:54;;;;;;;;;;;;;;;5.19;69.68;102257.56;4970234;28;2655;-83
2023/03/01 10:09:21;;;;;;;;;;;;;;;5.23;69.54;102259.81;4974840;28;2322;-83
2023/03/01 10:11:48;;;;;;;;;;;;;;;5.19;69.96;102257.56;4975318;28;3540;-81
2023/03/01 10:14:14;;;;;;;;;;;;;;;5.20;69.86;102265.44;4989096;28;2980;-82
2023/03/01 10:16:41;;;;;;;;;;;;;;;5.27;69.79;102265.72;4975815;28;2603;-82
2023/03/01 10:19:08;;;;;;;;;;;;;;;5.31;69.77;102263.59;4983458;28;2336;-82
2023/03/01 10:21:34;;;;;;;;;;;;;;;5.28;69.78;102262.06;4977818;28;2311;-83
2023/03/01 10:24:01;;;;;;;;;;;;;;;5.29;69.78;102255.72;4980794;28;2433;-83
2023/03/01 10:26:28;;;;;;;;;;;;;;;5.33;69.88;102246.44;4982060;28;3064;-81
2023/03/01 10:28:55;;;;;;;;;;;;;;;5.32;69.78;102241.22;4979571;28;2355;-82
2023/03/01 10:31:22;;;;;;;;;;;;;;;5.32;69.96;102244.72;4978422;28;2491;-82
2023/03/01 10:33:54;;;;;;;;;;;;;;;5.31;70.09;102252.91;4980819;28;2192;-83
2023/03/01 10:36:21;;;;;;;;;;;;;;;5.41;69.83;102257.25;4987531;28;2342;-82
2023/03/01 10:38:48;;;;;;;;;;;;;;;5.34;69.91;102253.47;4964037;28;2790;-80
2023/03/01 10:41:15;;;;;;;;;;;;;;;5.37;70.07;102257.69;4966428;28;2628;-82
2023/03/01 10:43:41;;;;;;;;;;;;;;;5.39;69.96;102261.06;4966788;28;2580;-82
2023/03/01 10:46:08;;;;;;;;;;;;;;;5.45;70.04;102261.31;4964670;28;2533;-82
2023/03/01 10:48:35;;;;;;;;;;;;;;;5.44;69.98;102267.66;4966516;28;2694;-82
2023/03/01 10:51:01;;;;;;;;;;;;;;;5.47;69.88;102256.69;4966151;28;2849;-82
2023/03/01 10:53:29;;;;;;;;;;;;;;;5.46;70.02;102256.81;4971253;28;2796;-82
2023/03/01 10:55:55;;;;;;;;;;;;;;;5.45;70.13;102255.13;4983543;28;2817;-80
2023/03/01 10:58:22;;;;;;;;;;;;;;;5.46;70.29;102260.31;4970532;28;2257;-82
2023/03/01 11:00:48;;;;;;;;;;;;;;;5.50;70.27;102252.00;4975295;28;2857;-80
2023/03/01 11:03:15;;;;;;;;;;;;;;;5.52;70.26;102250.88;4976625;28;2650;-81
2023/03/01 11:05:41;;;;;;;;;;;;;;;5.51;70.14;102251.88;4974691;28;2623;-80
2023/03/01 11:08:10;;;;;;;;;;;;;;;5.50;70.25;102250.22;4988284;28;2373;-82
2023/03/01 11:10:36;;;;;;;;;;;;;;;5.60;69.89;102250.16;4975512;28;2289;-80
2023/03/01 11:13:03;;;;;;;;;;;;;;;5.55;70.28;102241.72;4969424;28;2643;-81
2023/03/01 11:15:30;;;;;;;;;;;;;;;5.60;70.15;102236.81;4979367;28;2622;-82
2023/03/01 11:17:56;;;;;;;;;;;;;;;5.58;70.38;102238.78;4989020;28;2104;-81
2023/03/01 11:20:23;;;;;;;;;;;;;;;5.63;70.09;102241.84;4978502;28;4695;-81
2023/03/01 11:22:49;;;;;;;;;;;;;;;5.59;70.33;102241.31;4986903;28;2052;-83
2023/03/01 11:25:16;;;;;;;;;;;;;;;5.63;70.28;102241.84;4987145;28;1384;-81
2023/03/01 11:27:45;;;;;;;;;;;;;;;5.65;70.36;102229.19;4981376;28;3870;-82
2023/03/01 11:30:12;;;;;;;;;;;;;;;5.63;70.52;102225.81;4985801;28;2328;-81
2023/03/01 11:32:38;;;;;;;;;;;;;;;5.62;70.46;102219.63;4984184;28;2356;-81
2023/03/01 11:35:05;;;;;;;;;;;;;;;5.65;70.44;102218.50;4982463;28;2236;-81
2023/03/01 11:37:31;;;;;;;;;;;;;;;5.69;70.54;102219.88;4982751;28;2122;-83
2023/03/01 11:39:58;;;;;;;;;;;;;;;5.70;70.29;102219.72;4980166;28;2158;-81
2023/03/01 11:42:24;;;;;;;;;;;;;;;5.73;70.33;102223.94;4980083;28;2321;-82
2023/03/01 11:44:51;;;;;;;;;;;;;;;5.69;70.55;102214.53;4979824;28;2077;-82
2023/03/01 11:47:17;;;;;;;;;;;;;;;5.72;70.44;102211.56;4994163;28;1653;-82
2023/03/01 11:49:44;;;;;;;;;;;;;;;5.74;70.60;102206.91;4985548;28;1857;-82
2023/03/01 11:52:10;;;;;;;;;;;;;;;5.78;70.39;102202.94;4986998;28;1258;-81
2023/03/01 11:54:37;;;;;;;;;;;;;;;5.77;70.56;102198.59;4985573;28;1948;-82
2023/03/01 11:57:04;;;;;;;;;;;;;;;5.79;70.41;102201.13;4992224;28;1412;-82
2023/03/01 11:59:30;;;;;;;;;;;;;;;5.81;70.59;102199.13;4991348;28;2619;-82
2023/03/01 12:01:57;;;;;;;;;;;;;;;5.78;70.63;102191.41;5001476;28;1914;-82
2023/03/01 12:04:23;;;;;;;;;;;;;;;5.80;70.78;102192.97;4988559;28;1520;-81
2023/03/01 12:06:50;;;;;;;;;;;;;;;5.79;70.95;102191.25;4985602;28;2130;-82
2023/03/01 12:09:16;;;;;;;;;;;;;;;5.83;70.83;102187.31;4982659;28;1812;-82
2023/03/01 12:11:43;;;;;;;;;;;;;;;5.84;70.88;102190.81;4988221;28;1784;-81
2023/03/01 12:14:09;;;;;;;;;;;;;;;5.86;70.73;102195.03;4986926;28;2268;-82
2023/03/01 12:16:36;;;;;;;;;;;;;;;5.86;70.72;102191.53;4984854;28;2093;-81
2023/03/01 12:19:02;;;;;;;;;;;;;;;5.86;70.96;102188.84;4985023;28;2063;-81
2023/03/01 12:21:29;;;;;;;;;;;;;;;5.90;70.75;102190.22;4970708;28;2354;-81
2023/03/01 12:23:55;;;;;;;;;;;;;;;5.89;71.00;102181.38;4979494;28;2316;-82
2023/03/01 12:26:22;;;;;;;;;;;;;;;5.92;71.05;102180.22;4980325;28;2282;-81
2023/03/01 12:28:49;;;;;;;;;;;;;;;5.93;70.93;102181.94;4978929;28;2303;-83
2023/03/01 12:31:15;;;;;;;;;;;;;;;5.94;71.10;102172.91;4971496;28;2054;-82
2023/03/01 12:33:42;;;;;;;;;;;;;;;5.96;71.14;102175.44;4978842;28;2117;-82
2023/03/01 12:36:09;;;;;;;;;;;;;;;5.97;70.96;102171.78;4987729;28;1284;-82
2023/03/01 12:38:36;;;;;;;;;;;;;;;5.99;70.93;102173.31;4989833;28;1692;-82
2023/03/01 12:41:03;;;;;;;;;;;;;;;6.00;71.01;102175.00;4986783;28;2567;-82
2023/03/01 12:43:29;;;;;;;;;;;;;;;6.01;71.07;102170.50;4980579;28;2343;-83
2023/03/01 12:45:56;;;;;;;;;;;;;;;6.06;71.08;102165.50;4993601;28;2102;-82
2023/03/01 12:48:22;;;;;;;;;;;;;;;5.51;70.90;102069.31;4976899;28;2146;-82
2023/03/01 12:50:49;;;;;;;;;;;;;;;6.06;70.93;102157.50;4975955;28;2071;-82
2023/03/01 12:53:15;;;;;;;;;;;;;;;6.08;71.19;102150.16;4976492;28;2153;-83
2023/03/01 12:55:42;;;;;;;;;;;;;;;6.09;71.27;102157.22;4981829;28;2492;-83
2023/03/01 12:58:09;;;;;;;;;;;;;;;6.10;71.18;102151.69;4992177;28;2044;-82
2023/03/01 13:00:36;;;;;;;;;;;;;;;6.10;71.14;102149.03;4979867;28;2158;-82
2023/03/01 13:03:02;;;;;;;;;;;;;;;6.13;71.26;102148.72;4971832;28;2658;-82
2023/03/01 13:05:29;;;;;;;;;;;;;;;6.16;71.26;102154.78;4978741;28;2273;-82
2023/03/01 13:07:55;;;;;;;;;;;;;;;6.19;71.33;102141.94;4981028;28;2663;-82
2023/03/01 13:10:22;;;;;;;;;;;;;;;6.19;71.24;102133.91;4981606;28;2313;-82
2023/03/01 13:12:48;;;;;;;;;;;;;;;6.22;70.97;102138.94;4983800;28;2753;-82
2023/03/01 13:15:15;;;;;;;;;;;;;;;6.23;71.35;102132.59;4974547;28;2288;-82
2023/03/01 13:17:42;;;;;;;;;;;;;;;6.24;71.14;102134.28;4975674;28;2085;-82